Time;durP1;ratioP1;P1;durP2;ratioP2;P2;SDS_P1;SDS_P2;PMS_P1;PMS_P2;Temp;Humidity;BMP_temperature;BMP_pressure;BME280_temperature;BME280_humidity;BME280_pressure;Samples;Min_cycle;Max_cycle;Signal;HPM_P1;HPM_P2
2022/04/07 00:00:44;;;;;;;2.20;1.90;;;10.50;99.90;;;;;;5052961;28;20473;-82
2022/04/07 00:03:09;;;;;;;4.50;3.13;;;10.50;99.90;;;;;;5052383;28;20021;-83
2022/04/07 00:05:35;;;;;;;3.03;2.33;;;10.50;99.90;;;;;;5053070;28;20048;-82
2022/04/07 00:08:01;;;;;;;5.72;2.80;;;10.50;99.90;;;;;;5052241;28;20393;-82
2022/04/07 00:10:27;;;;;;;3.42;2.10;;;10.50;99.90;;;;;;5052419;28;20518;-83
2022/04/07 00:12:52;;;;;;;4.20;2.92;;;10.50;99.90;;;;;;5052323;28;20027;-82
2022/04/07 00:15:18;;;;;;;3.03;2.00;;;10.40;99.90;;;;;;5052360;28;20427;-83
2022/04/07 00:17:44;;;;;;;4.13;2.60;;;10.40;99.90;;;;;;5052804;28;20025;-83
2022/04/07 00:20:10;;;;;;;3.15;2.13;;;10.40;99.90;;;;;;5052431;28;20086;-83
2022/04/07 00:22:39;;;;;;;4.10;2.20;;;10.40;99.90;;;;;;5052708;28;20450;-83
2022/04/07 00:25:05;;;;;;;4.28;2.22;;;10.40;99.90;;;;;;5052635;28;20025;-83
2022/04/07 00:27:31;;;;;;;4.22;2.65;;;10.40;99.90;;;;;;5052869;28;20025;-83
2022/04/07 00:29:57;;;;;;;4.97;2.47;;;10.40;99.90;;;;;;5052977;28;20477;-83
2022/04/07 00:32:23;;;;;;;2.90;2.60;;;10.30;99.90;;;;;;5052932;28;20025;-83
2022/04/07 00:34:54;;;;;;;4.82;2.60;;;10.40;99.90;;;;;;5053081;28;20032;-82
2022/04/07 00:37:22;;;;;;;4.72;2.55;;;10.30;99.90;;;;;;5052686;28;20408;-82
2022/04/07 00:39:51;;;;;;;4.65;2.50;;;10.30;99.90;;;;;;5052391;28;20499;-82
2022/04/07 00:42:17;;;;;;;6.30;3.28;;;10.30;99.90;;;;;;5052895;28;20030;-82
2022/04/07 00:44:44;;;;;;;4.45;2.17;;;10.30;99.90;;;;;;5056180;28;20116;-82
2022/04/07 00:47:12;;;;;;;6.90;2.35;;;10.30;99.90;;;;;;5056442;28;20025;-82
2022/04/07 00:49:38;;;;;;;4.07;2.30;;;10.30;99.90;;;;;;5056652;28;20079;-82
2022/04/07 00:52:04;;;;;;;4.80;2.67;;;10.30;99.90;;;;;;5056447;28;20033;-82
2022/04/07 00:54:30;;;;;;;5.72;2.10;;;10.30;99.90;;;;;;5055378;28;20598;-83
2022/04/07 00:56:57;;;;;;;7.47;2.38;;;10.30;99.90;;;;;;5055601;28;20040;-83
2022/04/07 00:59:23;;;;;;;3.38;2.22;;;10.30;99.90;;;;;;5055537;28;20557;-84
2022/04/07 01:01:49;;;;;;;8.55;2.22;;;10.30;99.90;;;;;;5055766;28;20029;-85
2022/04/07 01:04:15;;;;;;;5.18;1.63;;;10.30;99.90;;;;;;5055535;28;20060;-85
2022/04/07 01:06:42;;;;;;;5.93;1.90;;;10.30;99.90;;;;;;5055763;28;20036;-84
2022/04/07 01:09:12;;;;;;;5.03;1.50;;;10.30;99.90;;;;;;5055591;28;20033;-85
2022/04/07 01:11:38;;;;;;;6.82;1.38;;;10.30;99.90;;;;;;5055828;28;20053;-85
2022/04/07 01:14:04;;;;;;;5.95;1.55;;;10.30;99.90;;;;;;5055751;28;20029;-85
2022/04/07 01:16:30;;;;;;;7.65;1.20;;;10.30;99.90;;;;;;5055565;28;20071;-85
2022/04/07 01:18:59;;;;;;;5.93;1.13;;;10.30;99.90;;;;;;5055313;28;20419;-85
2022/04/07 01:21:31;;;;;;;4.90;1.40;;;10.30;99.90;;;;;;5055636;28;20035;-85
2022/04/07 01:24:08;;;;;;;4.00;1.00;;;10.30;99.90;;;;;;5055497;28;20052;-84
2022/04/07 01:26:45;;;;;;;6.30;1.25;;;10.20;99.90;;;;;;5055274;28;20095;-84
2022/04/07 01:29:15;;;;;;;6.50;1.10;;;10.20;99.90;;;;;;5055437;28;20052;-83
2022/04/07 01:31:42;;;;;;;8.57;1.50;;;10.20;99.90;;;;;;5055235;28;20112;-84
2022/04/07 01:34:14;;;;;;;6.72;1.30;;;10.10;99.90;;;;;;5054943;28;20061;-84
2022/04/07 01:36:46;;;;;;;10.10;1.67;;;10.10;99.90;;;;;;5055124;28;20033;-84
2022/04/07 01:39:13;;;;;;;8.43;1.35;;;10.00;99.90;;;;;;5054830;28;20071;-83
2022/04/07 01:41:41;;;;;;;6.65;1.15;;;9.90;99.90;;;;;;5055357;28;20033;-83
2022/04/07 01:44:09;;;;;;;8.90;1.27;;;9.90;99.90;;;;;;5054944;28;20175;-83
2022/04/07 01:46:35;;;;;;;6.38;1.30;;;9.90;99.90;;;;;;5054606;28;20484;-83
2022/04/07 01:49:02;;;;;;;9.07;1.20;;;9.80;99.90;;;;;;5055206;28;20135;-84
2022/04/07 01:51:29;;;;;;;4.95;1.15;;;9.80;99.90;;;;;;5054994;28;20036;-84
2022/04/07 01:53:56;;;;;;;7.60;1.20;;;9.80;99.90;;;;;;5054758;28;20116;-83
2022/04/07 01:56:22;;;;;;;8.85;1.17;;;9.80;99.90;;;;;;5055073;28;20025;-83
2022/04/07 01:58:48;;;;;;;6.32;1.40;;;9.80;99.90;;;;;;5055048;28;20087;-83
2022/04/07 02:01:15;;;;;;;6.15;1.65;;;9.80;99.90;;;;;;5055239;28;20036;-83
2022/04/07 02:03:41;;;;;;;6.00;1.55;;;9.80;99.90;;;;;;5055079;28;20036;-84
2022/04/07 02:06:17;;;;;;;7.97;1.63;;;9.80;99.90;;;;;;5055335;28;20025;-84
2022/04/07 02:08:44;;;;;;;6.25;1.50;;;9.80;99.90;;;;;;5055112;28;20029;-86
2022/04/07 02:11:10;;;;;;;7.80;1.60;;;9.80;99.90;;;;;;5055677;28;20408;-83
2022/04/07 02:13:38;;;;;;;9.82;1.70;;;9.70;99.90;;;;;;5055006;28;20029;-83
2022/04/07 02:16:04;;;;;;;11.18;2.33;;;9.80;99.90;;;;;;5055162;28;20025;-83
2022/04/07 02:18:30;;;;;;;10.60;1.88;;;9.80;99.90;;;;;;5054814;28;20071;-83
2022/04/07 02:20:56;;;;;;;6.18;1.77;;;9.70;99.90;;;;;;5054793;28;20053;-83
2022/04/07 02:23:22;;;;;;;10.18;2.10;;;9.70;99.90;;;;;;5054726;28;20044;-83
2022/04/07 02:25:47;;;;;;;6.72;1.88;;;9.70;99.90;;;;;;5054879;28;20033;-83
2022/04/07 02:28:13;;;;;;;9.48;2.05;;;9.70;99.90;;;;;;5054935;28;20029;-83
2022/04/07 02:30:38;;;;;;;5.88;1.90;;;9.60;99.90;;;;;;5054822;28;20094;-84
2022/04/07 02:33:04;;;;;;;6.13;2.10;;;9.70;99.90;;;;;;5054431;28;20025;-84
2022/04/07 02:35:29;;;;;;;7.25;1.90;;;9.70;99.90;;;;;;5053827;28;20028;-84
2022/04/07 02:37:58;;;;;;;13.57;3.05;;;9.70;99.90;;;;;;5054412;28;20139;-84
2022/04/07 02:40:24;;;;;;;11.68;2.40;;;9.60;99.90;;;;;;5053704;28;20033;-83
2022/04/07 02:42:50;;;;;;;9.52;2.15;;;9.70;99.90;;;;;;5054540;28;20028;-84
2022/04/07 02:45:15;;;;;;;7.65;2.08;;;9.60;99.90;;;;;;5053659;28;20479;-83
2022/04/07 02:47:41;;;;;;;7.40;2.22;;;9.60;99.90;;;;;;5054261;28;20391;-86
2022/04/07 02:50:07;;;;;;;9.18;2.38;;;9.70;99.90;;;;;;5053219;28;20056;-85
2022/04/07 02:52:33;;;;;;;8.93;2.20;;;9.60;99.90;;;;;;5052657;28;20020;-86
2022/04/07 02:54:59;;;;;;;7.38;2.40;;;9.60;99.90;;;;;;5053526;28;20447;-86
2022/04/07 02:57:26;;;;;;;8.85;2.30;;;9.60;99.90;;;;;;5053868;28;20120;-86
2022/04/07 02:59:52;;;;;;;10.32;2.28;;;9.70;99.90;;;;;;5053924;28;20033;-86
2022/04/07 03:02:18;;;;;;;8.02;1.88;;;9.70;99.90;;;;;;5053195;28;20036;-83
2022/04/07 03:04:43;;;;;;;14.52;2.65;;;9.60;99.90;;;;;;5053714;28;20040;-84
2022/04/07 03:07:09;;;;;;;10.13;2.63;;;9.70;99.90;;;;;;5053154;28;20025;-84
2022/04/07 03:09:35;;;;;;;16.40;2.90;;;9.70;99.90;;;;;;5053280;28;20076;-84
2022/04/07 03:12:00;;;;;;;13.63;2.63;;;9.70;99.90;;;;;;5053210;28;20031;-84
2022/04/07 03:14:27;;;;;;;13.68;2.90;;;9.70;99.90;;;;;;5053157;28;20037;-85
2022/04/07 03:16:53;;;;;;;13.32;2.78;;;9.80;99.90;;;;;;5053284;28;20116;-85
2022/04/07 03:19:19;;;;;;;14.95;2.83;;;9.80;99.90;;;;;;5053199;28;20048;-84
2022/04/07 03:21:45;;;;;;;12.52;2.42;;;9.80;99.90;;;;;;5052981;28;20351;-85
2022/04/07 03:24:11;;;;;;;13.38;2.55;;;9.80;99.90;;;;;;5052790;28;20164;-84
2022/04/07 03:26:38;;;;;;;16.98;2.35;;;9.90;99.90;;;;;;5053377;28;20052;-85
2022/04/07 03:29:04;;;;;;;13.30;2.58;;;9.90;99.90;;;;;;5053529;28;20025;-85
2022/04/07 03:31:29;;;;;;;15.00;2.33;;;9.90;99.90;;;;;;5053436;28;20032;-85
2022/04/07 03:33:55;;;;;;;13.15;2.78;;;10.00;99.90;;;;;;5053694;28;20021;-86
2022/04/07 03:36:20;;;;;;;9.90;2.13;;;10.00;99.90;;;;;;5053400;28;20394;-86
2022/04/07 03:38:48;;;;;;;17.75;2.05;;;10.00;99.90;;;;;;5053064;28;20114;-85
2022/04/07 03:41:14;;;;;;;15.10;2.78;;;10.00;99.90;;;;;;5053615;28;20025;-85
2022/04/07 03:43:42;;;;;;;10.10;2.10;;;10.00;99.90;;;;;;5053516;28;20021;-84
2022/04/07 03:46:08;;;;;;;12.90;2.20;;;10.00;99.90;;;;;;5053297;28;20507;-85
2022/04/07 03:48:34;;;;;;;17.67;2.53;;;10.00;99.90;;;;;;5053251;28;20111;-84
2022/04/07 03:50:59;;;;;;;12.95;2.50;;;10.00;99.90;;;;;;5053238;28;20109;-85
2022/04/07 03:53:25;;;;;;;11.10;2.40;;;10.00;99.90;;;;;;5053113;28;20033;-84
2022/04/07 03:55:51;;;;;;;15.60;2.13;;;10.00;99.90;;;;;;5053182;28;20029;-84
2022/04/07 03:58:16;;;;;;;12.10;1.60;;;10.00;99.90;;;;;;5052783;28;20035;-84
2022/04/07 04:00:42;;;;;;;13.13;2.20;;;9.90;99.90;;;;;;5052829;28;20028;-85
2022/04/07 04:03:07;;;;;;;16.20;2.75;;;9.90;99.90;;;;;;5052601;28;20040;-83
2022/04/07 04:05:33;;;;;;;12.77;2.00;;;9.90;99.90;;;;;;5052288;28;20020;-82
2022/04/07 04:07:59;;;;;;;12.60;2.25;;;9.80;99.90;;;;;;5052496;28;20036;-82
2022/04/07 04:10:25;;;;;;;13.35;2.10;;;9.80;99.90;;;;;;5052116;28;20045;-82
2022/04/07 04:12:51;;;;;;;15.70;2.08;;;9.80;99.90;;;;;;5053227;28;20487;-82
2022/04/07 04:15:16;;;;;;;14.93;2.30;;;9.80;99.90;;;;;;5052370;28;20036;-82
2022/04/07 04:17:42;;;;;;;12.02;1.92;;;9.80;99.90;;;;;;5052883;28;20036;-82
2022/04/07 04:20:08;;;;;;;13.68;2.08;;;9.80;99.90;;;;;;5056347;28;20036;-82
2022/04/07 04:22:34;;;;;;;8.55;1.50;;;9.90;99.90;;;;;;5056823;28;20472;-82
2022/04/07 04:25:00;;;;;;;15.68;2.30;;;9.80;99.90;;;;;;5056823;28;20091;-83
2022/04/07 04:27:25;;;;;;;12.95;2.08;;;9.90;99.90;;;;;;5056517;28;20048;-83
2022/04/07 04:29:51;;;;;;;12.40;1.77;;;9.90;99.90;;;;;;5056525;28;20438;-85
2022/04/07 04:32:16;;;;;;;11.82;2.05;;;9.90;99.90;;;;;;5056243;28;20112;-84
2022/04/07 04:34:42;;;;;;;17.75;2.40;;;9.90;99.90;;;;;;5056562;28;20040;-84
2022/04/07 04:37:08;;;;;;;10.48;1.52;;;9.90;99.90;;;;;;5056249;28;20116;-85
2022/04/07 04:39:34;;;;;;;9.40;1.58;;;9.80;99.90;;;;;;5056185;28;20455;-85
2022/04/07 04:41:59;;;;;;;13.98;1.73;;;9.90;99.90;;;;;;5056477;28;20039;-85
2022/04/07 04:44:25;;;;;;;12.32;1.50;;;9.90;99.90;;;;;;5056163;28;20036;-86
2022/04/07 04:46:51;;;;;;;16.95;3.05;;;9.90;99.90;;;;;;5056502;28;20033;-85
2022/04/07 04:49:16;;;;;;;9.25;1.13;;;9.90;99.90;;;;;;5056149;28;20043;-85
2022/04/07 04:51:42;;;;;;;7.80;1.35;;;9.90;99.90;;;;;;5056216;28;20112;-85
2022/04/07 04:54:07;;;;;;;8.38;1.30;;;9.90;99.90;;;;;;5056247;28;20044;-85
2022/04/07 04:56:33;;;;;;;12.13;1.52;;;10.00;99.90;;;;;;5056315;28;20488;-81
2022/04/07 04:58:58;;;;;;;8.20;1.25;;;10.00;99.90;;;;;;5055211;28;20041;-84
2022/04/07 05:01:24;;;;;;;9.55;1.38;;;10.00;99.90;;;;;;5056367;28;20021;-81
2022/04/07 05:03:50;;;;;;;12.10;2.40;;;10.00;99.90;;;;;;5056079;28;20306;-80
2022/04/07 05:06:16;;;;;;;9.30;1.60;;;10.00;99.90;;;;;;5055624;28;20022;-81
2022/04/07 05:08:41;;;;;;;11.35;1.52;;;10.00;99.90;;;;;;5056290;28;20027;-81
2022/04/07 05:11:07;;;;;;;6.50;1.30;;;10.00;99.90;;;;;;5056720;28;20049;-81
2022/04/07 05:13:33;;;;;;;9.82;1.17;;;10.10;99.90;;;;;;5055710;28;20388;-81
2022/04/07 05:15:59;;;;;;;10.02;1.33;;;10.10;99.90;;;;;;5055743;28;20371;-81
2022/04/07 05:18:24;;;;;;;7.65;1.33;;;10.10;99.90;;;;;;5055664;28;20029;-81
2022/04/07 05:20:50;;;;;;;7.53;0.98;;;10.10;99.90;;;;;;5055776;28;20025;-81
2022/04/07 05:23:16;;;;;;;9.10;1.27;;;10.10;99.90;;;;;;5055564;28;20472;-81
2022/04/07 05:25:41;;;;;;;8.23;0.88;;;10.10;99.90;;;;;;5055550;28;20036;-83
2022/04/07 05:28:07;;;;;;;7.97;1.25;;;10.20;99.90;;;;;;5055875;28;20036;-89
2022/04/07 05:30:33;;;;;;;5.53;1.15;;;10.20;99.90;;;;;;5054723;28;20032;-85
2022/04/07 05:32:58;;;;;;;6.78;0.80;;;10.20;99.90;;;;;;5055967;28;20052;-93
2022/04/07 05:35:28;;;;;;;7.95;1.08;;;10.20;99.90;;;;;;5055463;28;20697;-89
2022/04/07 05:38:03;;;;;;;4.30;0.70;;;10.10;99.90;;;;;;5056085;28;20369;-90
2022/04/07 05:40:29;;;;;;;5.43;0.65;;;10.20;99.90;;;;;;5039280;28;20024;-89
2022/04/07 05:42:55;;;;;;;4.40;0.90;;;10.10;99.90;;;;;;5056081;28;20380;-84
2022/04/07 05:45:21;;;;;;;5.65;0.93;;;10.20;99.90;;;;;;5054993;28;20021;-85
2022/04/07 05:47:47;;;;;;;3.42;0.60;;;10.10;99.90;;;;;;5055183;28;20025;-83
2022/04/07 05:50:13;;;;;;;2.75;0.68;;;10.10;99.90;;;;;;5054691;28;20056;-81
2022/04/07 05:52:39;;;;;;;3.85;0.60;;;10.10;99.90;;;;;;5054681;28;20020;-81
2022/04/07 05:55:05;;;;;;;4.05;0.68;;;10.10;99.90;;;;;;5054242;28;20037;-86
2022/04/07 05:57:31;;;;;;;4.68;0.70;;;10.10;99.90;;;;;;5054617;28;20025;-84
2022/04/07 06:00:12;;;;;;;3.20;0.52;;;10.10;99.90;;;;;;5054581;28;20056;-86
2022/04/07 06:02:38;;;;;;;3.10;0.50;;;10.10;99.90;;;;;;5054621;28;20064;-86
2022/04/07 06:05:09;;;;;;;2.38;0.30;;;10.00;99.90;;;;;;5055012;28;20021;-89
2022/04/07 06:07:36;;;;;;;3.25;0.50;;;10.10;99.90;;;;;;5054645;28;20057;-84
2022/04/07 06:10:02;;;;;;;5.80;0.60;;;10.10;99.90;;;;;;5053994;28;20051;-85
2022/04/07 06:12:27;;;;;;;2.85;0.45;;;10.00;99.90;;;;;;5053831;28;20029;-82
2022/04/07 06:14:53;;;;;;;4.97;0.50;;;10.00;99.90;;;;;;5053973;28;20108;-87
2022/04/07 06:17:19;;;;;;;3.88;0.77;;;10.00;99.90;;;;;;5053800;28;20048;-81
2022/04/07 06:19:44;;;;;;;3.13;0.65;;;10.00;99.90;;;;;;5053202;28;20388;-84
2022/04/07 06:22:11;;;;;;;4.75;0.70;;;10.00;99.90;;;;;;5054348;28;20024;-81
2022/04/07 06:24:37;;;;;;;3.17;0.43;;;9.90;99.90;;;;;;5054326;28;20046;-83
2022/04/07 06:27:03;;;;;;;2.60;0.50;;;9.90;99.90;;;;;;5055175;28;20499;-83
2022/04/07 06:29:28;;;;;;;2.42;0.65;;;9.90;99.90;;;;;;5053694;28;20075;-83
2022/04/07 06:31:54;;;;;;;3.97;0.77;;;9.90;99.90;;;;;;5054000;28;20032;-79
2022/04/07 06:34:20;;;;;;;4.90;0.80;;;9.90;99.90;;;;;;5054053;28;20345;-82
2022/04/07 06:36:47;;;;;;;1.27;0.70;;;9.90;99.90;;;;;;5055195;28;20021;-89
2022/04/07 06:39:13;;;;;;;2.78;1.00;;;9.80;99.90;;;;;;5054546;28;20041;-88
2022/04/07 06:41:39;;;;;;;3.05;0.80;;;9.90;99.90;;;;;;5053607;28;20029;-82
2022/04/07 06:44:05;;;;;;;3.42;1.10;;;9.80;99.90;;;;;;5053404;28;20029;-87
2022/04/07 06:46:32;;;;;;;3.70;1.10;;;9.80;99.90;;;;;;5054376;28;20025;-83
2022/04/07 06:48:58;;;;;;;6.55;1.40;;;9.80;99.90;;;;;;5054228;28;20052;-84
2022/04/07 06:51:24;;;;;;;5.15;1.48;;;9.80;99.90;;;;;;5054380;28;20025;-84
2022/04/07 06:53:50;;;;;;;4.93;1.60;;;9.80;99.90;;;;;;5053936;28;20025;-88
2022/04/07 06:56:15;;;;;;;5.53;1.38;;;9.70;99.90;;;;;;5053832;28;20017;-86
2022/04/07 06:58:41;;;;;;;3.20;1.00;;;9.70;99.90;;;;;;5053577;28;20029;-85
2022/04/07 07:01:09;;;;;;;5.93;1.23;;;9.80;99.90;;;;;;5054316;28;20027;-85
2022/04/07 07:03:34;;;;;;;7.80;1.42;;;9.80;99.90;;;;;;5053830;28;20025;-88
2022/04/07 07:06:00;;;;;;;2.97;0.60;;;9.90;99.90;;;;;;5053784;28;20071;-89
2022/04/07 07:08:26;;;;;;;1.58;0.20;;;9.80;99.90;;;;;;5054059;28;20025;-90
2022/04/07 07:10:52;;;;;;;1.73;0.20;;;9.60;99.90;;;;;;5054145;28;20094;-92
2022/04/07 07:13:20;;;;;;;4.18;1.17;;;9.40;99.90;;;;;;5054291;28;20037;-92
2022/04/07 07:15:46;;;;;;;5.38;0.20;;;9.20;99.90;;;;;;5054542;28;20070;-92
2022/04/07 07:18:12;;;;;;;3.30;0.20;;;8.80;99.90;;;;;;5054824;28;20093;-88
2022/04/07 07:20:38;;;;;;;2.47;0.10;;;8.60;99.90;;;;;;5054046;28;20052;-89
2022/04/07 07:23:04;;;;;;;2.72;0.30;;;8.50;99.90;;;;;;5053853;28;20044;-90
2022/04/07 07:25:31;;;;;;;1.02;0.10;;;8.40;99.90;;;;;;5053922;28;20058;-88
2022/04/07 07:28:01;;;;;;;2.20;0.17;;;8.30;99.90;;;;;;5053700;28;20029;-89
2022/04/07 07:30:27;;;;;;;3.03;0.20;;;8.30;99.90;;;;;;5053861;28;20048;-92
2022/04/07 07:32:54;;;;;;;2.33;0.10;;;8.40;99.90;;;;;;5054646;28;20021;-90
2022/04/07 07:35:21;;;;;;;2.15;0.20;;;8.40;99.90;;;;;;5054064;28;20029;-92
2022/04/07 07:38:01;;;;;;;3.58;0.30;;;8.30;99.90;;;;;;5053427;28;20033;-80
2022/04/07 07:40:29;;;;;;;1.95;0.30;;;8.30;99.90;;;;;;5052015;28;20036;-86
2022/04/07 07:42:56;;;;;;;5.40;0.25;;;8.30;99.90;;;;;;5052128;28;20377;-79
2022/04/07 07:45:23;;;;;;;2.63;0.30;;;8.20;99.90;;;;;;5051486;28;20104;-77
2022/04/07 07:47:50;;;;;;;2.67;0.57;;;8.30;99.90;;;;;;5052951;28;20029;-81
2022/04/07 07:50:16;;;;;;;3.97;0.63;;;8.20;99.90;;;;;;5052542;28;20033;-82
2022/04/07 07:52:41;;;;;;;2.15;0.38;;;8.20;99.90;;;;;;5052116;28;20079;-77
2022/04/07 07:55:08;;;;;;;3.25;0.50;;;8.20;99.90;;;;;;5052135;28;20025;-77
2022/04/07 07:57:33;;;;;;;3.63;0.40;;;8.20;99.90;;;;;;5052632;28;20025;-79
2022/04/07 08:00:00;;;;;;;2.42;0.28;;;8.20;99.90;;;;;;5051457;28;20150;-81
2022/04/07 08:02:26;;;;;;;2.65;0.50;;;8.20;99.90;;;;;;5053414;28;20029;-82
2022/04/07 08:04:52;;;;;;;5.32;0.65;;;8.20;99.90;;;;;;5053021;28;20024;-80
2022/04/07 08:07:18;;;;;;;4.40;0.32;;;8.20;99.90;;;;;;5052917;28;20118;-76
2022/04/07 08:09:44;;;;;;;3.03;0.93;;;8.20;99.90;;;;;;5053000;28;20048;-80
2022/04/07 08:12:10;;;;;;;2.63;0.20;;;8.20;99.90;;;;;;5053013;28;20119;-77
2022/04/07 08:14:35;;;;;;;4.05;0.30;;;8.20;99.90;;;;;;5052961;28;20075;-81
2022/04/07 08:17:01;;;;;;;1.50;0.20;;;8.30;99.90;;;;;;5052882;28;20028;-84
2022/04/07 08:19:27;;;;;;;3.05;0.65;;;8.20;99.90;;;;;;5052956;28;20041;-79
2022/04/07 08:21:53;;;;;;;4.50;0.40;;;8.20;99.90;;;;;;5052993;28;20091;-84
2022/04/07 08:24:20;;;;;;;2.75;0.20;;;8.30;99.90;;;;;;5053199;28;20108;-80
2022/04/07 08:26:46;;;;;;;4.55;0.22;;;8.20;99.90;;;;;;5053055;28;20036;-84
2022/04/07 08:29:11;;;;;;;2.55;0.30;;;8.20;99.90;;;;;;5054024;28;20074;-80
2022/04/07 08:31:38;;;;;;;2.38;0.30;;;8.20;99.90;;;;;;5052978;28;20028;-81
2022/04/07 08:34:03;;;;;;;3.28;0.35;;;8.20;99.90;;;;;;5052873;28;20048;-71
2022/04/07 08:36:29;;;;;;;4.80;0.40;;;8.20;99.90;;;;;;5052907;28;20032;-81
2022/04/07 08:38:54;;;;;;;3.00;0.38;;;8.30;99.90;;;;;;5052943;28;20041;-85
2022/04/07 08:41:21;;;;;;;2.65;0.30;;;8.30;99.90;;;;;;5052297;28;20041;-87
2022/04/07 08:43:47;;;;;;;5.22;0.98;;;8.40;99.90;;;;;;5052314;28;20025;-86
2022/04/07 08:46:13;;;;;;;6.60;0.90;;;8.50;99.90;;;;;;5052509;28;20028;-87
2022/04/07 08:48:43;;;;;;;5.65;0.85;;;8.60;99.90;;;;;;5051643;28;20025;-85
2022/04/07 08:51:09;;;;;;;4.38;0.80;;;8.60;99.90;;;;;;5051422;28;20104;-84
2022/04/07 08:53:37;;;;;;;4.40;0.93;;;8.70;99.90;;;;;;5050975;28;20021;-88
2022/04/07 08:56:04;;;;;;;4.10;0.85;;;8.90;99.90;;;;;;5051595;28;20064;-89
2022/04/07 08:58:30;;;;;;;6.85;1.00;;;9.20;99.90;;;;;;5050370;28;20123;-87
2022/04/07 09:00:56;;;;;;;2.75;0.40;;;9.40;99.90;;;;;;5050504;28;20044;-90
2022/04/07 09:03:22;;;;;;;5.40;0.60;;;9.60;99.90;;;;;;5055211;28;20353;-95
2022/04/07 09:06:02;;;;;;;7.90;0.82;;;9.70;99.90;;;;;;5056236;28;20033;-92
2022/04/07 09:08:32;;;;;;;4.53;0.70;;;10.00;99.90;;;;;;5057953;28;20039;-91
2022/04/07 09:10:59;;;;;;;2.83;0.60;;;10.00;99.90;;;;;;5056424;28;20071;-90
2022/04/07 09:13:32;;;;;;;3.65;0.63;;;10.00;99.90;;;;;;5056954;28;20025;-91
2022/04/07 09:15:59;;;;;;;3.17;0.40;;;10.00;99.90;;;;;;5056649;28;20029;-91
2022/04/07 09:18:26;;;;;;;2.60;0.43;;;10.00;99.90;;;;;;5056524;28;20115;-90
2022/04/07 09:20:52;;;;;;;2.90;0.40;;;10.10;99.90;;;;;;5056546;28;20075;-90
2022/04/07 09:23:18;;;;;;;2.35;0.52;;;10.20;99.90;;;;;;5056133;28;20384;-90
2022/04/07 09:25:49;;;;;;;5.07;0.68;;;10.30;99.90;;;;;;5056197;28;20025;-90
2022/04/07 09:28:28;;;;;;;4.70;0.40;;;10.20;99.90;;;;;;5056752;28;20029;-91
2022/04/07 09:30:55;;;;;;;3.40;0.32;;;10.10;99.90;;;;;;5056525;28;20381;-90
2022/04/07 09:33:23;;;;;;;4.30;0.45;;;10.00;99.90;;;;;;5056439;28;20031;-90
2022/04/07 09:36:10;;;;;;;5.65;0.50;;;9.90;99.90;;;;;;5056418;28;20104;-90
2022/04/07 09:38:39;;;;;;;7.00;0.60;;;10.00;99.90;;;;;;5056061;28;20507;-92
2022/04/07 09:41:05;;;;;;;5.97;0.30;;;10.00;99.90;;;;;;5056193;28;20021;-91
2022/04/07 09:43:58;;;;;;;4.85;0.43;;;10.00;99.90;;;;;;5056113;28;20100;-90
2022/04/07 09:46:34;;;;;;;4.88;0.75;;;10.00;99.90;;;;;;5055899;28;20052;-90
2022/04/07 09:49:04;;;;;;;7.50;0.88;;;10.10;99.90;;;;;;5055137;28;20037;-90
2022/04/07 09:51:37;;;;;;;5.45;0.60;;;10.10;99.90;;;;;;5055079;28;20020;-90
2022/04/07 09:54:06;;;;;;;4.05;0.47;;;10.30;99.90;;;;;;5054574;28;20036;-90
2022/04/07 09:56:32;;;;;;;6.15;1.00;;;10.40;99.90;;;;;;5052427;28;20029;-91
2022/04/07 09:58:58;;;;;;;8.02;0.95;;;10.40;99.90;;;;;;5053941;28;20071;-91
2022/04/07 10:01:24;;;;;;;7.15;0.60;;;10.40;99.90;;;;;;5055671;28;20472;-90
2022/04/07 10:03:51;;;;;;;10.13;0.82;;;10.40;99.90;;;;;;5054292;28;20156;-84
2022/04/07 10:06:17;;;;;;;6.05;0.63;;;10.50;99.90;;;;;;5054019;28;20028;-84
2022/04/07 10:08:48;;;;;;;7.10;0.55;;;10.70;99.90;;;;;;5054008;28;20373;-84
2022/04/07 10:11:15;;;;;;;4.72;0.68;;;10.90;99.90;;;;;;5053329;28;20045;-81
2022/04/07 10:13:43;;;;;;;6.45;0.40;;;11.10;99.90;;;;;;5050941;28;20494;-84
2022/04/07 10:16:10;;;;;;;6.75;0.60;;;11.20;99.30;;;;;;5051716;28;20025;-86
2022/04/07 10:19:08;;;;;;;4.47;0.55;;;11.20;98.50;;;;;;5052772;28;20063;-84
2022/04/07 10:21:48;;;;;;;5.03;0.40;;;11.40;98.80;;;;;;5048112;28;20090;-87
2022/04/07 10:24:28;;;;;;;3.35;0.30;;;11.40;97.60;;;;;;5052717;28;20027;-83
2022/04/07 10:26:55;;;;;;;4.68;0.47;;;11.40;95.90;;;;;;5052929;28;20369;-82
2022/04/07 10:29:22;;;;;;;5.47;0.57;;;11.30;95.40;;;;;;5052750;28;20028;-83
2022/04/07 10:32:12;;;;;;;4.88;0.60;;;11.20;96.10;;;;;;5052548;28;20036;-82
2022/04/07 10:34:42;;;;;;;7.00;0.40;;;11.10;96.00;;;;;;5052231;28;20024;-85
2022/04/07 10:37:09;;;;;;;5.40;1.10;;;11.10;95.20;;;;;;5053093;28;20041;-83
2022/04/07 10:39:35;;;;;;;4.72;0.52;;;11.20;94.80;;;;;;5053111;28;20068;-80
2022/04/07 10:42:01;;;;;;;7.40;0.82;;;11.30;94.80;;;;;;5052176;28;20130;-82
2022/04/07 10:44:28;;;;;;;7.47;1.02;;;11.40;93.70;;;;;;5052969;28;20036;-79
2022/04/07 10:47:04;;;;;;;6.97;0.70;;;11.50;93.30;;;;;;5052656;28;20052;-85
2022/04/07 10:49:31;;;;;;;6.70;0.82;;;11.70;92.10;;;;;;5053379;28;20072;-83
2022/04/07 10:51:59;;;;;;;9.25;1.35;;;11.70;92.00;;;;;;5052237;28;20507;-81
2022/04/07 10:54:30;;;;;;;12.48;1.13;;;11.60;92.00;;;;;;5050308;28;20425;-85
2022/04/07 10:56:59;;;;;;;9.00;1.30;;;11.60;91.80;;;;;;5052640;28;20033;-87
2022/04/07 10:59:26;;;;;;;8.52;0.80;;;11.80;92.20;;;;;;5051562;28;20041;-88
2022/04/07 11:02:05;;;;;;;7.13;0.80;;;11.80;91.40;;;;;;5053044;28;20071;-89
2022/04/07 11:04:36;;;;;;;7.95;1.33;;;11.70;91.30;;;;;;5050603;28;20048;-88
2022/04/07 11:07:05;;;;;;;8.32;0.90;;;11.60;90.60;;;;;;5052770;28;20108;-88
2022/04/07 11:09:46;;;;;;;10.00;0.80;;;11.40;90.70;;;;;;5055280;28;20087;-90
2022/04/07 11:12:28;;;;;;;12.23;1.27;;;11.30;90.30;;;;;;5054625;28;20036;-91
2022/04/07 11:15:28;;;;;;;10.50;1.65;;;11.20;90.70;;;;;;5053406;28;20029;-90
2022/04/07 11:18:13;;;;;;;14.77;1.48;;;11.10;90.90;;;;;;5043731;28;20036;-91
2022/04/07 11:20:59;;;;;;;8.60;1.17;;;11.00;90.70;;;;;;5050748;28;20493;-91
2022/04/07 11:23:49;;;;;;;10.35;1.65;;;10.80;90.90;;;;;;5052755;28;20044;-90
2022/04/07 11:26:20;;;;;;;8.15;1.38;;;10.70;90.70;;;;;;5051883;28;20021;-91
2022/04/07 11:29:11;;;;;;;11.68;1.63;;;10.70;91.40;;;;;;5051026;28;20511;-91
2022/04/07 11:31:44;;;;;;;16.00;2.28;;;10.70;91.60;;;;;;5052054;28;20501;-91
2022/04/07 11:34:35;;;;;;;12.43;1.80;;;10.60;91.10;;;;;;5052963;28;20025;-90
2022/04/07 11:37:08;;;;;;;12.07;1.73;;;10.60;91.50;;;;;;5052254;28;20039;-90
2022/04/07 11:39:34;;;;;;;;;;;10.60;91.20;;;;;;5041543;28;20034;-91
2022/04/07 11:42:00;;;;;;;9.52;1.23;;;10.60;91.30;;;;;;5053774;28;20348;-90
2022/04/07 11:44:26;;;;;;;12.18;1.55;;;10.60;91.10;;;;;;5053733;28;20032;-90
2022/04/07 11:46:52;;;;;;;14.35;1.65;;;10.50;91.40;;;;;;5053864;28;20083;-90
2022/04/07 11:49:17;;;;;;;8.38;1.55;;;10.50;91.90;;;;;;5053362;28;20029;-89
2022/04/07 11:51:45;;;;;;;10.10;1.65;;;10.50;91.80;;;;;;5053471;28;20024;-90
2022/04/07 11:54:15;;;;;;;15.50;2.17;;;10.50;91.40;;;;;;5053404;28;20085;-83
2022/04/07 11:56:41;;;;;;;13.15;1.42;;;10.60;91.30;;;;;;5054703;28;20025;-91
2022/04/07 11:59:11;;;;;;;8.27;1.45;;;10.70;90.80;;;;;;5055243;28;20210;-89
2022/04/07 12:01:43;;;;;;;6.97;1.20;;;10.70;90.00;;;;;;5068121;28;20461;-89
2022/04/07 12:04:10;;;;;;;10.98;1.50;;;10.70;90.20;;;;;;5052191;28;20036;-85
2022/04/07 12:06:40;;;;;;;14.52;1.65;;;10.70;90.30;;;;;;5050202;28;20029;-85
2022/04/07 12:09:07;;;;;;;15.90;1.70;;;10.70;90.30;;;;;;5051418;28;20040;-87
2022/04/07 12:11:36;;;;;;;13.48;2.25;;;10.70;90.20;;;;;;5051464;28;20032;-87
2022/04/07 12:14:08;;;;;;;9.80;1.60;;;10.80;90.80;;;;;;5044376;28;20033;-87
2022/04/07 12:16:34;;;;;;;12.82;1.33;;;10.80;91.10;;;;;;5050073;28;20025;-86
2022/04/07 12:19:04;;;;;;;11.23;1.83;;;10.90;90.50;;;;;;5053005;28;20065;-86
2022/04/07 12:21:56;;;;;;;9.98;1.20;;;10.90;90.00;;;;;;5048168;28;20068;-86
2022/04/07 12:24:24;;;;;;;10.27;1.30;;;11.00;90.20;;;;;;5033129;28;20473;-86
2022/04/07 12:26:52;;;;;;;14.70;1.70;;;11.10;89.20;;;;;;5040505;28;20364;-86
2022/04/07 12:29:31;;;;;;;10.05;1.25;;;11.00;90.00;;;;;;5054266;28;20052;-87
2022/04/07 12:32:03;;;;;;;10.68;1.95;;;11.00;90.20;;;;;;5073056;28;20108;-87
2022/04/07 12:34:29;;;;;;;13.18;1.60;;;11.00;90.50;;;;;;5058324;28;20419;-86
2022/04/07 12:36:55;;;;;;;13.27;1.35;;;11.00;89.60;;;;;;5052609;28;20037;-87
2022/04/07 12:39:21;;;;;;;12.95;1.58;;;10.90;89.00;;;;;;5052803;28;20029;-86
2022/04/07 12:41:52;;;;;;;9.15;1.63;;;10.90;89.90;;;;;;5056681;28;20035;-88
2022/04/07 12:44:31;;;;;;;11.82;1.20;;;10.90;88.00;;;;;;5056601;28;20045;-88
2022/04/07 12:46:58;;;;;;;8.98;1.30;;;10.90;88.10;;;;;;5056793;28;20083;-88
2022/04/07 12:49:24;;;;;;;13.63;1.70;;;10.90;88.30;;;;;;5056402;28;20021;-88
2022/04/07 12:52:01;;;;;;;11.50;1.55;;;10.90;88.00;;;;;;5056291;28;20345;-87